Time;durP1;ratioP1;P1;durP2;ratioP2;P2;SDS_P1;SDS_P2;PMS_P1;PMS_P2;Temp;Humidity;BMP_temperature;BMP_pressure;BME280_temperature;BME280_humidity;BME280_pressure;Samples;Min_cycle;Max_cycle;Signal;HPM_P1;HPM_P2
2022/10/04 00:00:27;;;;;;;7.32;1.10;;;12.50;99.90;;;;;;6244428;23;20008;-73
2022/10/04 00:02:59;;;;;;;5.60;1.33;;;12.50;99.90;;;;;;6242371;22;20020;-69
2022/10/04 00:05:26;;;;;;;5.97;0.65;;;12.30;99.90;;;;;;6244907;23;20001;-72
2022/10/04 00:07:59;;;;;;;4.28;1.20;;;12.30;99.90;;;;;;6244570;23;20031;-74
2022/10/04 00:10:30;;;;;;;1.63;0.88;;;12.30;99.90;;;;;;6243019;22;20028;-72
2022/10/04 00:12:59;;;;;;;6.43;0.90;;;12.30;99.90;;;;;;6243047;23;20011;-73
2022/10/04 00:15:36;;;;;;;1.70;0.63;;;12.30;99.90;;;;;;6242854;23;20001;-73
2022/10/04 00:18:10;;;;;;;3.17;1.00;;;12.30;99.90;;;;;;6243464;23;20004;-73
2022/10/04 00:20:52;;;;;;;3.38;0.73;;;12.30;99.90;;;;;;6241026;23;20000;-72
2022/10/04 00:23:23;;;;;;;1.15;0.60;;;12.40;99.90;;;;;;6243559;23;20076;-74
2022/10/04 00:26:04;;;;;;;2.92;0.90;;;12.40;99.90;;;;;;6244093;23;20035;-73
2022/10/04 00:28:42;;;;;;;2.42;0.90;;;12.40;99.90;;;;;;6235459;23;20004;-71
2022/10/04 00:31:14;;;;;;;4.38;1.10;;;12.40;99.90;;;;;;6239846;23;20000;-75
2022/10/04 00:33:43;;;;;;;2.55;0.80;;;12.50;99.90;;;;;;6242762;22;20023;-76
2022/10/04 00:36:24;;;;;;;3.33;1.15;;;12.50;99.90;;;;;;6241913;23;20072;-73
2022/10/04 00:39:08;;;;;;;2.67;0.70;;;12.40;99.90;;;;;;6244887;23;20302;-74
2022/10/04 00:41:46;;;;;;;3.20;0.90;;;12.50;99.90;;;;;;6241902;23;20004;-75
2022/10/04 00:44:43;;;;;;;4.70;1.52;;;12.40;99.90;;;;;;6241637;23;20106;-74
2022/10/04 00:47:32;;;;;;;2.33;0.90;;;12.30;99.90;;;;;;6223592;22;20004;-74
2022/10/04 00:50:22;;;;;;;5.15;1.13;;;12.10;99.90;;;;;;6244546;23;20004;-74
2022/10/04 00:52:53;;;;;;;4.68;1.20;;;12.10;99.90;;;;;;6226925;23;20082;-75
2022/10/04 00:55:32;;;;;;;2.27;0.97;;;12.00;99.90;;;;;;6242086;23;20060;-77
2022/10/04 00:58:01;;;;;;;3.60;1.10;;;12.00;99.90;;;;;;6243025;23;20008;-75
2022/10/04 01:00:30;;;;;;;4.25;1.08;;;12.10;99.90;;;;;;6242546;23;20014;-74
2022/10/04 01:03:11;;;;;;;3.55;1.05;;;12.10;99.90;;;;;;6243027;23;20011;-75
2022/10/04 01:05:45;;;;;;;3.90;1.30;;;12.00;99.90;;;;;;6239045;23;20008;-75
2022/10/04 01:08:17;;;;;;;5.80;1.65;;;12.00;99.90;;;;;;6243556;23;20004;-74
2022/10/04 01:10:49;;;;;;;2.15;1.25;;;12.00;99.90;;;;;;6240689;22;20019;-74
2022/10/04 01:13:26;;;;;;;3.00;0.80;;;12.00;99.90;;;;;;6244839;23;20004;-73
2022/10/04 01:16:03;;;;;;;4.30;1.25;;;12.00;99.90;;;;;;6242217;23;20000;-75
2022/10/04 01:18:32;;;;;;;4.28;1.35;;;12.00;99.90;;;;;;6242404;23;20050;-74
2022/10/04 01:21:19;;;;;;;6.32;1.25;;;12.00;99.90;;;;;;6238912;22;20031;-74
2022/10/04 01:23:47;;;;;;;3.97;1.02;;;12.00;99.90;;;;;;6239183;23;20071;-74
2022/10/04 01:26:28;;;;;;;3.30;0.88;;;12.10;99.90;;;;;;6240611;23;20004;-73
2022/10/04 01:29:32;;;;;;;4.68;1.02;;;12.10;99.90;;;;;;6244798;23;20011;-73
2022/10/04 01:31:59;;;;;;;2.92;0.98;;;12.20;99.90;;;;;;6240027;22;20014;-75
2022/10/04 01:34:27;;;;;;;4.00;0.85;;;12.20;99.90;;;;;;6246202;23;20326;-73
2022/10/04 01:36:56;;;;;;;2.78;0.90;;;12.10;99.90;;;;;;6246254;23;20031;-73
2022/10/04 01:39:23;;;;;;;2.38;0.90;;;12.10;99.90;;;;;;6243431;23;19996;-73
2022/10/04 01:42:13;;;;;;;4.72;1.23;;;12.10;99.90;;;;;;6244726;23;20008;-74
2022/10/04 01:45:01;;;;;;;5.47;1.45;;;12.10;99.90;;;;;;6245069;22;20016;-74
2022/10/04 01:47:33;;;;;;;4.47;1.27;;;12.20;99.90;;;;;;6243699;23;20000;-73
2022/10/04 01:50:04;;;;;;;3.00;0.88;;;12.20;99.90;;;;;;6244921;23;20008;-73
2022/10/04 01:52:41;;;;;;;4.15;0.90;;;12.10;99.90;;;;;;6241206;23;20179;-74
2022/10/04 01:55:23;;;;;;;3.03;0.80;;;12.10;99.90;;;;;;6242790;23;20004;-73
2022/10/04 01:57:58;;;;;;;2.17;0.75;;;12.20;99.90;;;;;;6246145;23;20000;-73
2022/10/04 02:00:24;;;;;;;3.85;0.88;;;12.20;99.90;;;;;;6244538;23;20111;-75
2022/10/04 02:03:12;;;;;;;3.78;0.80;;;12.20;99.90;;;;;;6243993;23;20024;-74
2022/10/04 02:05:41;;;;;;;2.72;0.82;;;12.30;99.90;;;;;;6235600;23;20015;-73
2022/10/04 02:08:11;;;;;;;3.30;0.98;;;12.20;99.90;;;;;;6236107;23;20000;-74
2022/10/04 02:10:38;;;;;;;5.20;1.35;;;12.20;99.90;;;;;;6232646;22;20004;-76
2022/10/04 02:13:10;;;;;;;4.97;0.82;;;12.10;99.90;;;;;;6233610;23;20000;-75
2022/10/04 02:15:39;;;;;;;1.10;0.63;;;12.00;99.90;;;;;;6236045;23;20338;-76
2022/10/04 02:18:14;;;;;;;4.78;1.30;;;12.00;99.90;;;;;;6235189;23;20028;-74
2022/10/04 02:20:41;;;;;;;2.67;1.23;;;12.00;99.90;;;;;;6235334;23;20058;-75
2022/10/04 02:23:09;;;;;;;3.42;1.00;;;11.90;99.90;;;;;;6233245;23;20016;-74
2022/10/04 02:25:36;;;;;;;3.80;1.20;;;12.00;99.90;;;;;;6234164;23;20004;-75
2022/10/04 02:28:02;;;;;;;3.50;1.30;;;12.00;99.90;;;;;;6235007;23;20011;-74
2022/10/04 02:30:34;;;;;;;3.17;1.08;;;12.00;99.90;;;;;;6234759;23;20004;-74
2022/10/04 02:33:00;;;;;;;2.63;1.23;;;12.10;99.90;;;;;;6231701;23;20035;-74
2022/10/04 02:35:50;;;;;;;5.35;1.50;;;12.10;99.90;;;;;;6232506;23;20017;-75
2022/10/04 02:38:34;;;;;;;2.88;1.10;;;12.00;99.90;;;;;;6235228;23;20429;-72
2022/10/04 02:41:17;;;;;;;5.20;1.35;;;12.00;99.90;;;;;;6233549;23;20004;-74
2022/10/04 02:44:00;;;;;;;4.47;1.95;;;12.00;99.90;;;;;;6233383;23;20086;-73
2022/10/04 02:46:44;;;;;;;3.72;1.50;;;12.00;99.90;;;;;;6232276;23;20008;-72
2022/10/04 02:49:26;;;;;;;1.80;1.23;;;12.00;99.90;;;;;;6235638;23;20045;-72
2022/10/04 02:52:02;;;;;;;6.30;1.75;;;12.00;99.90;;;;;;6234490;23;20004;-73
2022/10/04 02:54:42;;;;;;;2.70;1.20;;;12.00;99.90;;;;;;6234872;23;20012;-72
2022/10/04 02:57:27;;;;;;;4.50;1.30;;;12.10;99.90;;;;;;6234042;23;20008;-73
2022/10/04 03:00:12;;;;;;;5.65;1.60;;;12.00;99.90;;;;;;6234387;22;20004;-73
2022/10/04 03:02:39;;;;;;;5.13;1.40;;;12.00;99.90;;;;;;6233287;22;20015;-72
2022/10/04 03:05:09;;;;;;;3.45;1.40;;;12.00;99.90;;;;;;6234014;23;20600;-73
2022/10/04 03:07:37;;;;;;;3.78;1.00;;;12.00;99.90;;;;;;6234461;23;20008;-73
2022/10/04 03:10:11;;;;;;;2.85;1.42;;;11.90;99.90;;;;;;6235868;22;20032;-74
2022/10/04 03:12:38;;;;;;;5.35;1.45;;;11.80;99.90;;;;;;6232832;23;20001;-76
2022/10/04 03:15:11;;;;;;;2.92;1.10;;;11.70;99.90;;;;;;6233476;23;20000;-75
2022/10/04 03:17:41;;;;;;;4.63;1.77;;;11.60;99.90;;;;;;6233651;23;20004;-64
2022/10/04 03:20:13;;;;;;;5.32;2.60;;;11.60;99.90;;;;;;6233535;23;20004;-64
2022/10/04 03:22:39;;;;;;;;;;;11.50;99.90;;;;;;6232271;23;20348;-64
2022/10/04 03:25:09;;;;;;;2.35;1.45;;;11.50;99.90;;;;;;6233844;22;20359;-64
2022/10/04 03:27:36;;;;;;;4.18;1.67;;;11.40;99.90;;;;;;6232782;22;20075;-64
2022/10/04 03:30:02;;;;;;;3.10;1.40;;;11.40;99.90;;;;;;6232486;23;20127;-64
2022/10/04 03:32:29;;;;;;;4.53;1.45;;;11.40;99.90;;;;;;6232546;22;20692;-64
2022/10/04 03:35:04;;;;;;;4.53;1.42;;;11.40;99.90;;;;;;6232294;22;20027;-64
2022/10/04 03:37:35;;;;;;;2.60;1.63;;;11.40;99.90;;;;;;6232664;23;20004;-64
2022/10/04 03:40:02;;;;;;;2.85;1.40;;;11.40;99.90;;;;;;6233092;23;20426;-64
2022/10/04 03:42:30;;;;;;;2.65;1.33;;;11.30;99.90;;;;;;6232753;23;20004;-63
2022/10/04 03:45:00;;;;;;;3.38;1.60;;;11.30;99.90;;;;;;6231049;23;20357;-64
2022/10/04 03:47:29;;;;;;;3.65;1.73;;;11.30;99.90;;;;;;6233475;23;20000;-64
2022/10/04 03:50:01;;;;;;;5.57;1.75;;;11.20;99.90;;;;;;6232118;23;20004;-64
2022/10/04 03:52:31;;;;;;;2.90;1.70;;;11.10;99.90;;;;;;6231912;23;20000;-64
2022/10/04 03:55:01;;;;;;;4.90;1.75;;;11.10;99.90;;;;;;6233327;23;20012;-75
2022/10/04 03:57:28;;;;;;;4.20;1.60;;;11.10;99.90;;;;;;6232508;23;20404;-75
2022/10/04 03:59:55;;;;;;;3.83;1.75;;;11.20;99.90;;;;;;6231308;23;20004;-75
2022/10/04 04:02:29;;;;;;;5.22;2.00;;;11.20;99.90;;;;;;6231994;23;20004;-74
2022/10/04 04:05:15;;;;;;;4.90;1.88;;;11.30;99.90;;;;;;6232079;23;20083;-74
2022/10/04 04:07:46;;;;;;;6.55;1.77;;;11.30;99.90;;;;;;6231785;23;20008;-75
2022/10/04 04:10:26;;;;;;;5.38;2.00;;;11.40;99.90;;;;;;6232286;22;20132;-75
2022/10/04 04:13:00;;;;;;;4.70;1.88;;;11.40;99.90;;;;;;6233378;23;20000;-74
2022/10/04 04:15:31;;;;;;;5.25;1.55;;;11.50;99.90;;;;;;6229308;23;20008;-74
2022/10/04 04:18:20;;;;;;;2.33;1.58;;;11.50;99.90;;;;;;6229898;23;20051;-74
2022/10/04 04:20:52;;;;;;;4.13;1.60;;;11.50;99.90;;;;;;6235005;23;20380;-74
2022/10/04 04:23:31;;;;;;;4.57;1.90;;;11.60;99.90;;;;;;6233016;23;20054;-75
2022/10/04 04:26:14;;;;;;;4.15;1.75;;;11.60;99.90;;;;;;6235708;23;20508;-75
2022/10/04 04:28:50;;;;;;;5.68;1.45;;;11.60;99.90;;;;;;6235849;23;20008;-76
2022/10/04 04:31:32;;;;;;;5.15;1.73;;;11.50;99.90;;;;;;6233936;23;20019;-64
2022/10/04 04:34:04;;;;;;;4.10;2.22;;;11.40;99.90;;;;;;6234121;22;20024;-64
2022/10/04 04:36:39;;;;;;;3.30;1.50;;;11.50;99.90;;;;;;6233972;23;20468;-64
2022/10/04 04:39:36;;;;;;;2.78;1.55;;;11.40;99.90;;;;;;6233486;23;20190;-64
2022/10/04 04:42:09;;;;;;;7.43;2.08;;;11.40;99.90;;;;;;6234274;23;19996;-64
2022/10/04 04:44:47;;;;;;;3.63;1.60;;;11.40;99.90;;;;;;6235187;23;20290;-64
2022/10/04 04:47:25;;;;;;;5.63;2.13;;;11.30;99.90;;;;;;6233996;23;20066;-64
2022/10/04 04:49:52;;;;;;;4.50;1.83;;;11.30;99.90;;;;;;6232764;23;20004;-64
2022/10/04 04:52:20;;;;;;;3.38;1.52;;;11.40;99.90;;;;;;6234457;23;20476;-73
2022/10/04 04:54:46;;;;;;;4.45;1.73;;;11.40;99.90;;;;;;6235073;23;20019;-74
2022/10/04 04:57:17;;;;;;;3.88;1.70;;;11.40;99.90;;;;;;6232496;23;20000;-76
2022/10/04 04:59:51;;;;;;;4.13;1.90;;;11.40;99.90;;;;;;6233565;23;20151;-74
2022/10/04 05:02:36;;;;;;;4.30;2.13;;;11.40;99.90;;;;;;6231632;23;20004;-74
2022/10/04 05:05:22;;;;;;;8.90;2.10;;;11.30;99.90;;;;;;6230808;22;20015;-77
2022/10/04 05:07:49;;;;;;;6.72;2.30;;;11.30;99.90;;;;;;6231498;22;20028;-75
2022/10/04 05:10:33;;;;;;;5.38;2.58;;;11.40;99.90;;;;;;6232071;22;20413;-64
2022/10/04 05:13:01;;;;;;;4.13;2.15;;;11.40;99.90;;;;;;6226059;23;20429;-63
2022/10/04 05:15:32;;;;;;;3.53;1.70;;;11.50;99.90;;;;;;6228059;23;20027;-63
2022/10/04 05:17:58;;;;;;;3.42;1.88;;;11.40;99.90;;;;;;6226276;23;20004;-63
2022/10/04 05:20:24;;;;;;;5.38;2.10;;;11.40;99.90;;;;;;6230602;23;20004;-63
2022/10/04 05:22:50;;;;;;;3.00;2.00;;;11.40;99.90;;;;;;6233180;23;20083;-63
2022/10/04 05:25:27;;;;;;;4.50;1.80;;;11.40;99.90;;;;;;6233836;23;20008;-63
2022/10/04 05:27:54;;;;;;;11.43;1.80;;;11.30;99.90;;;;;;6235263;23;20000;-64
2022/10/04 05:30:47;;;;;;;6.78;2.22;;;11.40;99.90;;;;;;6233582;23;20011;-80
2022/10/04 05:33:21;;;;;;;2.05;1.70;;;11.40;99.90;;;;;;6235264;23;20204;-81
2022/10/04 05:36:09;;;;;;;4.53;2.00;;;11.40;99.90;;;;;;6232691;23;20669;-86
2022/10/04 05:38:53;;;;;;;5.53;1.90;;;11.50;99.90;;;;;;6232372;23;20326;-84
2022/10/04 05:41:40;;;;;;;3.35;1.40;;;11.50;99.90;;;;;;6234423;23;20069;-84
2022/10/04 05:44:29;;;;;;;3.15;1.50;;;11.60;99.90;;;;;;6234495;23;20026;-81
2022/10/04 05:46:58;;;;;;;5.70;1.50;;;11.60;99.90;;;;;;6231591;23;20384;-81
2022/10/04 05:49:27;;;;;;;2.45;1.42;;;11.60;99.90;;;;;;6233801;23;20004;-63
2022/10/04 05:52:01;;;;;;;3.67;1.70;;;11.60;99.90;;;;;;6235323;23;20062;-63
2022/10/04 05:54:34;;;;;;;3.67;1.55;;;11.60;99.90;;;;;;6233612;23;20429;-63
2022/10/04 05:57:03;;;;;;;2.40;1.30;;;11.60;99.90;;;;;;6232719;23;20008;-64
2022/10/04 05:59:55;;;;;;;1.83;1.27;;;11.70;99.90;;;;;;6233326;23;20069;-64
2022/10/04 06:02:58;;;;;;;3.83;1.45;;;11.70;99.90;;;;;;6232458;22;20008;-64
2022/10/04 06:05:40;;;;;;;2.25;1.30;;;11.80;99.90;;;;;;6228850;23;20099;-64
2022/10/04 06:08:21;;;;;;;2.65;1.25;;;11.90;99.90;;;;;;6233020;23;20004;-83
2022/10/04 06:11:00;;;;;;;4.25;1.33;;;11.80;99.90;;;;;;6232865;22;20606;-82
2022/10/04 06:13:34;;;;;;;7.85;1.75;;;11.80;99.90;;;;;;6233872;22;20004;-84
2022/10/04 06:16:21;;;;;;;4.78;1.83;;;11.90;99.90;;;;;;6232671;23;20014;-81
2022/10/04 06:19:29;;;;;;;3.60;1.60;;;11.90;99.90;;;;;;6232615;23;20393;-80
2022/10/04 06:22:03;;;;;;;3.35;1.63;;;12.00;99.90;;;;;;6219476;23;20015;-81
2022/10/04 06:24:37;;;;;;;4.40;1.50;;;12.00;99.90;;;;;;6235200;23;20091;-84
2022/10/04 06:27:36;;;;;;;3.08;1.30;;;12.00;99.90;;;;;;6232904;23;20016;-79
2022/10/04 06:30:11;;;;;;;2.42;1.30;;;12.00;99.90;;;;;;6233022;23;20032;-81
2022/10/04 06:33:09;;;;;;;5.10;1.52;;;12.00;99.90;;;;;;6232466;23;20471;-82
2022/10/04 06:36:02;;;;;;;2.97;1.30;;;12.10;99.90;;;;;;6233028;22;20073;-80
2022/10/04 06:38:52;;;;;;;6.13;1.42;;;12.10;99.90;;;;;;6233642;23;20004;-83
2022/10/04 06:41:45;;;;;;;3.38;1.40;;;12.10;99.90;;;;;;6233940;23;20445;-84
2022/10/04 06:44:48;;;;;;;1.67;1.05;;;12.10;99.90;;;;;;6233552;23;20069;-82
2022/10/04 06:47:20;;;;;;;;;;;12.20;99.90;;;;;;6233235;22;20008;-65
2022/10/04 06:50:05;;;;;;;2.00;0.73;;;12.30;99.90;;;;;;6233685;22;20202;-64
2022/10/04 06:52:53;;;;;;;2.80;1.00;;;12.30;99.90;;;;;;6231559;23;20661;-65
2022/10/04 06:55:53;;;;;;;3.45;1.45;;;12.40;99.90;;;;;;6232233;23;20007;-65
2022/10/04 06:58:43;;;;;;;3.00;1.42;;;12.60;99.90;;;;;;6231589;23;20000;-64
2022/10/04 07:01:17;;;;;;;3.28;1.20;;;12.70;99.90;;;;;;6232567;22;20512;-65
2022/10/04 07:04:00;;;;;;;2.83;0.98;;;13.00;99.90;;;;;;6231598;23;20035;-62
2022/10/04 07:06:36;;;;;;;2.17;0.80;;;13.20;99.90;;;;;;6233442;23;20087;-62
2022/10/04 07:09:04;;;;;;;1.73;1.00;;;13.50;99.90;;;;;;6231620;23;20038;-63
2022/10/04 07:12:07;;;;;;;2.00;0.82;;;13.80;99.90;;;;;;6231564;22;20505;-63
2022/10/04 07:14:38;;;;;;;1.38;0.73;;;14.10;99.90;;;;;;6235729;22;20446;-62
2022/10/04 07:17:11;;;;;;;2.20;0.90;;;14.30;99.90;;;;;;6232990;23;20016;-62
2022/10/04 07:19:47;;;;;;;2.72;1.17;;;14.50;99.90;;;;;;6232890;23;19996;-63
2022/10/04 07:22:35;;;;;;;1.48;0.80;;;14.70;99.90;;;;;;6235253;23;20027;-62
2022/10/04 07:25:26;;;;;;;2.90;0.90;;;14.80;99.90;;;;;;6235895;23;20712;-62
2022/10/04 07:31:02;;;;;;;0.85;0.70;;;14.80;99.90;;;;;;6234449;23;20019;-63
2022/10/04 07:33:30;;;;;;;1.73;0.80;;;14.60;99.90;;;;;;6233897;23;20004;-63
2022/10/04 07:36:10;;;;;;;2.80;0.70;;;14.50;99.90;;;;;;6225387;22;20019;-63
2022/10/04 07:39:00;;;;;;;2.65;1.25;;;14.40;99.90;;;;;;6230444;23;20092;-62
2022/10/04 07:41:34;;;;;;;2.80;0.68;;;14.30;99.90;;;;;;6232236;23;20074;-63
2022/10/04 07:44:27;;;;;;;5.00;0.98;;;14.30;99.90;;;;;;6235260;23;20012;-78
2022/10/04 07:47:05;;;;;;;2.22;0.93;;;14.20;99.90;;;;;;6233405;23;20000;-79
2022/10/04 07:49:38;;;;;;;3.53;1.27;;;14.20;99.90;;;;;;6235437;23;20016;-80
2022/10/04 07:52:31;;;;;;;2.20;1.23;;;14.10;99.90;;;;;;6234623;23;20004;-79
2022/10/04 07:55:36;;;;;;;3.10;0.90;;;13.90;99.90;;;;;;6233683;23;20510;-81
2022/10/04 07:58:17;;;;;;;1.95;0.85;;;13.90;99.90;;;;;;6233845;23;20012;-79
2022/10/04 08:00:48;;;;;;;1.35;0.98;;;13.90;99.90;;;;;;6233181;23;20012;-82
2022/10/04 08:03:31;;;;;;;1.75;0.70;;;13.90;99.90;;;;;;6234021;23;20412;-64
2022/10/04 08:06:24;;;;;;;3.45;0.98;;;13.90;99.90;;;;;;6234955;23;20007;-64
2022/10/04 08:08:57;;;;;;;5.40;0.80;;;13.80;99.90;;;;;;6235156;23;20018;-64
2022/10/04 08:11:53;;;;;;;3.78;0.90;;;13.80;99.90;;;;;;6234574;22;20038;-64
2022/10/04 08:14:26;;;;;;;2.15;0.80;;;13.90;99.90;;;;;;6235036;22;20008;-64
2022/10/04 08:17:21;;;;;;;5.32;1.08;;;13.90;99.90;;;;;;6234212;23;20099;-64
2022/10/04 08:20:24;;;;;;;2.63;1.02;;;14.00;99.90;;;;;;6235511;23;20809;-64
2022/10/04 08:23:08;;;;;;;2.97;0.73;;;13.90;99.90;;;;;;6236058;23;20464;-80
2022/10/04 08:25:55;;;;;;;3.10;1.05;;;14.10;99.90;;;;;;6237374;23;20008;-80
2022/10/04 08:32:23;;;;;;;2.85;0.68;;;14.20;99.90;;;;;;6235289;23;20150;-81
2022/10/04 08:35:04;;;;;;;3.72;0.82;;;14.30;99.90;;;;;;6236428;23;20032;-79
2022/10/04 08:37:38;;;;;;;1.35;0.70;;;14.30;99.90;;;;;;6235575;23;20026;-81
2022/10/04 08:40:12;;;;;;;4.25;0.75;;;14.50;99.90;;;;;;6235639;23;20008;-79
2022/10/04 08:43:08;;;;;;;2.05;0.52;;;14.70;99.90;;;;;;6236885;23;20008;-78
2022/10/04 08:45:59;;;;;;;4.25;0.57;;;14.80;99.90;;;;;;6233598;23;20042;-81
2022/10/04 08:48:44;;;;;;;2.33;0.80;;;15.00;99.90;;;;;;6233776;22;20489;-81
2022/10/04 08:51:27;;;;;;;1.60;0.50;;;15.10;99.90;;;;;;6234317;23;20119;-82
2022/10/04 08:54:02;;;;;;;2.03;0.80;;;15.20;99.90;;;;;;6232506;23;20015;-80
2022/10/04 08:57:04;;;;;;;1.52;0.88;;;15.30;99.90;;;;;;6231035;23;20043;-87
2022/10/04 08:59:50;;;;;;;1.95;0.70;;;15.30;99.90;;;;;;6234837;22;20107;-64
2022/10/04 09:02:37;;;;;;;1.80;0.70;;;15.40;99.90;;;;;;6229937;23;20023;-64
2022/10/04 09:05:40;;;;;;;0.90;0.45;;;15.50;99.90;;;;;;6228210;23;20095;-64
2022/10/04 09:09:02;;;;;;;2.05;0.45;;;15.50;99.90;;;;;;6231468;23;20062;-65
2022/10/04 09:11:49;;;;;;;1.10;0.52;;;15.60;99.90;;;;;;6139725;23;20009;-64
2022/10/04 09:14:18;;;;;;;1.70;0.60;;;15.70;99.90;;;;;;6140733;23;20009;-64
2022/10/04 09:16:56;;;;;;;2.38;0.80;;;15.70;99.90;;;;;;6208349;23;20016;-64
2022/10/04 09:19:33;;;;;;;2.38;0.65;;;15.70;99.90;;;;;;6234434;23;20001;-64
2022/10/04 09:22:04;;;;;;;2.05;0.47;;;15.60;99.90;;;;;;6235653;23;20000;-64
2022/10/04 09:25:02;;;;;;;0.73;0.57;;;15.60;99.90;;;;;;6235846;23;20468;-64
2022/10/04 09:27:35;;;;;;;0.50;0.50;;;15.70;99.90;;;;;;6233431;23;20449;-64
2022/10/04 09:30:21;;;;;;;0.90;0.50;;;15.80;99.90;;;;;;6236734;23;20004;-64
2022/10/04 09:33:02;;;;;;;1.42;0.70;;;15.90;99.90;;;;;;6226742;23;20040;-64
2022/10/04 09:35:52;;;;;;;2.42;1.20;;;15.90;99.90;;;;;;6231912;23;20024;-64
2022/10/04 09:38:55;;;;;;;1.05;0.60;;;16.00;99.90;;;;;;6231604;23;20000;-64
2022/10/04 09:41:25;;;;;;;2.92;0.60;;;16.10;99.90;;;;;;6233211;22;20007;-64
2022/10/04 09:44:21;;;;;;;3.17;0.82;;;16.00;99.90;;;;;;6232867;23;20016;-64
2022/10/04 09:46:58;;;;;;;2.17;0.75;;;16.00;99.90;;;;;;6233587;23;20003;-64
2022/10/04 09:49:58;;;;;;;1.70;0.50;;;15.90;99.90;;;;;;6230363;23;20717;-64
2022/10/04 09:52:43;;;;;;;4.22;0.80;;;15.80;99.90;;;;;;6229986;22;20087;-64
2022/10/04 09:55:21;;;;;;;1.42;0.65;;;15.80;99.90;;;;;;6232852;23;20004;-64
2022/10/04 09:58:17;;;;;;;1.23;0.80;;;15.80;99.90;;;;;;6231420;23;20010;-64
2022/10/04 10:00:58;;;;;;;1.88;0.80;;;15.80;99.90;;;;;;6225928;22;20004;-64
2022/10/04 10:03:33;;;;;;;3.17;0.77;;;16.00;99.90;;;;;;6231386;23;20008;-65
2022/10/04 10:06:26;;;;;;;2.25;0.50;;;16.10;99.90;;;;;;6230913;23;20008;-64
2022/10/04 10:09:03;;;;;;;1.88;0.90;;;16.10;99.90;;;;;;6230420;22;20089;-64
2022/10/04 10:15:10;;;;;;;1.42;0.55;;;16.00;99.90;;;;;;6229302;23;20027;-64
2022/10/04 10:17:39;;;;;;;2.58;0.68;;;16.10;99.90;;;;;;6227481;23;20051;-64
2022/10/04 10:20:35;;;;;;;1.85;0.70;;;16.10;99.90;;;;;;6229214;23;20000;-64
2022/10/04 10:23:40;;;;;;;1.15;0.65;;;16.40;99.90;;;;;;6232817;23;20031;-64
2022/10/04 10:26:06;;;;;;;2.42;0.80;;;16.60;99.90;;;;;;6231635;23;20265;-64
2022/10/04 10:29:09;;;;;;;3.17;0.80;;;16.70;99.90;;;;;;6228998;23;20736;-64
2022/10/04 10:32:16;;;;;;;2.83;0.63;;;16.30;99.90;;;;;;6231199;22;20012;-64
2022/10/04 10:34:54;;;;;;;2.92;0.60;;;15.80;99.90;;;;;;6229341;23;20020;-64
2022/10/04 10:37:44;;;;;;;1.98;0.77;;;15.60;99.90;;;;;;6230447;23;20007;-65
2022/10/04 10:40:35;;;;;;;2.55;0.60;;;15.50;99.90;;;;;;6232420;23;20011;-65
2022/10/04 10:43:14;;;;;;;1.63;0.60;;;15.40;99.90;;;;;;6230529;23;20047;-64
2022/10/04 10:46:07;;;;;;;0.98;0.50;;;15.30;99.90;;;;;;6227162;23;20015;-64
2022/10/04 10:48:42;;;;;;;2.03;0.50;;;15.50;99.90;;;;;;6233231;23;20091;-65
2022/10/04 10:51:45;;;;;;;0.57;0.30;;;15.70;99.90;;;;;;6229503;23;20515;-64
2022/10/04 10:54:30;;;;;;;;;;;15.80;99.90;;;;;;6231512;22;20000;-64
2022/10/04 10:57:44;;;;;;;2.63;0.57;;;15.90;99.90;;;;;;6231147;22;19964;-64
2022/10/04 11:00:16;;;;;;;1.25;0.35;;;16.00;99.90;;;;;;6230241;23;20186;-64
2022/10/04 11:03:00;;;;;;;1.05;0.60;;;16.10;99.90;;;;;;6230895;23;20160;-65
2022/10/04 11:06:03;;;;;;;1.17;0.50;;;16.20;99.90;;;;;;6233488;23;20020;-64
2022/10/04 11:09:05;;;;;;;1.23;0.40;;;16.30;99.90;;;;;;6232315;22;20440;-64
2022/10/04 11:12:08;;;;;;;1.02;0.40;;;16.40;99.90;;;;;;6231008;22;20012;-64
2022/10/04 11:14:52;;;;;;;5.15;0.55;;;16.50;99.90;;;;;;6233313;22;20004;-85
2022/10/04 11:17:24;;;;;;;2.88;0.60;;;16.60;99.90;;;;;;6233778;22;20543;-81
2022/10/04 11:20:23;;;;;;;0.93;0.25;;;16.60;99.90;;;;;;6234100;23;20410;-82
2022/10/04 11:23:17;;;;;;;3.17;0.70;;;16.70;99.90;;;;;;6234574;23;20039;-80
2022/10/04 11:26:02;;;;;;;1.40;0.50;;;16.70;99.90;;;;;;6232946;23;20016;-81
2022/10/04 11:28:31;;;;;;;2.15;0.65;;;16.60;99.90;;;;;;6235985;22;20377;-79
2022/10/04 11:31:16;;;;;;;1.85;0.45;;;16.40;99.90;;;;;;6235460;23;20031;-81
2022/10/04 11:33:54;;;;;;;2.10;0.50;;;16.30;99.90;;;;;;6234417;23;20027;-81
2022/10/04 11:36:51;;;;;;;0.75;0.30;;;16.30;99.90;;;;;;6236641;23;20020;-78
2022/10/04 11:39:40;;;;;;;0.85;0.40;;;16.30;99.90;;;;;;6231813;23;20110;-80
2022/10/04 11:42:25;;;;;;;2.13;0.38;;;16.10;99.90;;;;;;6231165;23;20028;-82
2022/10/04 11:45:04;;;;;;;4.43;0.47;;;16.10;99.90;;;;;;6234116;23;20023;-78
2022/10/04 11:47:44;;;;;;;1.52;0.65;;;16.00;99.90;;;;;;6233236;23;20004;-79
2022/10/04 11:50:39;;;;;;;2.55;0.73;;;16.10;99.90;;;;;;6232383;23;20004;-78
2022/10/04 11:53:42;;;;;;;2.10;0.55;;;16.10;99.90;;;;;;6232625;23;20429;-64
2022/10/04 11:56:44;;;;;;;0.45;0.32;;;16.20;99.90;;;;;;6234939;22;20007;-64
2022/10/04 11:59:21;;;;;;;0.82;0.55;;;16.20;99.90;;;;;;6233792;23;20360;-64
2022/10/04 12:02:20;;;;;;;1.20;0.40;;;16.30;99.90;;;;;;6233888;23;20012;-65
2022/10/04 12:04:57;;;;;;;0.70;0.70;;;16.50;99.90;;;;;;6233534;22;20374;-64
2022/10/04 12:07:33;;;;;;;1.45;0.47;;;16.50;99.90;;;;;;6234635;23;20011;-64
2022/10/04 12:10:23;;;;;;;0.73;0.35;;;16.60;99.90;;;;;;6230954;22;20016;-65
2022/10/04 12:12:51;;;;;;;1.52;0.55;;;16.70;99.90;;;;;;6233344;22;20596;-65
2022/10/04 12:15:33;;;;;;;7.10;0.60;;;16.80;99.90;;;;;;6229689;23;20004;-64
2022/10/04 12:18:16;;;;;;;1.33;0.45;;;16.90;99.90;;;;;;6229739;23;20378;-64
2022/10/04 12:21:02;;;;;;;0.65;0.22;;;17.20;99.90;;;;;;6232649;23;20151;-65
2022/10/04 12:23:58;;;;;;;1.13;0.35;;;17.50;99.90;;;;;;6232974;23;20103;-65
2022/10/04 12:26:59;;;;;;;2.63;0.32;;;17.60;99.90;;;;;;6234153;22;20051;-64
2022/10/04 12:30:03;;;;;;;1.40;0.30;;;17.70;99.90;;;;;;6233879;23;20807;-79
2022/10/04 12:32:51;;;;;;;2.38;0.60;;;17.70;99.90;;;;;;6218212;22;20069;-80
2022/10/04 12:35:38;;;;;;;1.65;0.63;;;17.70;99.90;;;;;;6231456;23;20548;-79
2022/10/04 12:38:27;;;;;;;1.23;0.40;;;17.70;99.90;;;;;;6230061;23;20008;-82
2022/10/04 12:41:10;;;;;;;0.77;0.30;;;17.60;99.90;;;;;;6233997;23;20069;-78
2022/10/04 12:44:13;;;;;;;1.73;0.30;;;17.60;99.90;;;;;;6231420;23;20020;-84
2022/10/04 12:46:48;;;;;;;4.93;0.60;;;17.60;99.90;;;;;;6234747;23;20079;-77
2022/10/04 12:49:20;;;;;;;0.95;0.38;;;17.60;99.90;;;;;;6233781;23;20004;-65
2022/10/04 12:52:09;;;;;;;2.42;0.60;;;17.60;99.90;;;;;;6233148;23;20015;-65
2022/10/04 12:54:38;;;;;;;1.42;0.50;;;17.60;99.90;;;;;;6217194;23;20023;-65
2022/10/04 12:57:51;;;;;;;1.02;0.40;;;17.50;99.90;;;;;;6233916;23;20457;-64
2022/10/04 13:00:16;;;;;;;0.63;0.30;;;17.40;99.90;;;;;;6232306;23;20004;-64
2022/10/04 13:03:01;;;;;;;2.17;0.43;;;17.40;99.90;;;;;;6231004;23;20015;-65
2022/10/04 13:05:45;;;;;;;1.35;0.22;;;17.40;99.90;;;;;;6233096;23;20033;-64
2022/10/04 13:08:20;;;;;;;2.72;0.50;;;17.50;99.90;;;;;;6235985;23;20602;-64
2022/10/04 13:11:04;;;;;;;1.90;0.43;;;17.50;99.90;;;;;;6233005;22;20008;-64
2022/10/04 13:13:29;;;;;;;0.75;0.45;;;17.60;99.90;;;;;;6230192;23;20091;-64
2022/10/04 13:16:21;;;;;;;0.45;0.22;;;17.80;99.90;;;;;;6231510;23;20063;-64
2022/10/04 13:19:24;;;;;;;2.08;0.40;;;17.90;99.90;;;;;;6226480;23;20004;-65
2022/10/04 13:22:04;;;;;;;1.00;0.47;;;17.80;99.90;;;;;;6232177;22;20311;-65
2022/10/04 13:25:16;;;;;;;0.68;0.30;;;17.80;99.90;;;;;;6232870;23;20012;-66
2022/10/04 13:28:04;;;;;;;1.00;0.50;;;17.90;99.90;;;;;;6229136;23;20157;-65
2022/10/04 13:30:57;;;;;;;1.02;0.50;;;17.80;99.90;;;;;;6233291;23;20087;-65
2022/10/04 13:33:46;;;;;;;1.27;0.43;;;17.70;99.90;;;;;;6231248;22;20015;-65
2022/10/04 13:36:19;;;;;;;1.30;0.55;;;17.90;99.90;;;;;;6231003;23;20023;-65
2022/10/04 13:39:21;;;;;;;0.38;0.30;;;17.90;99.90;;;;;;6229830;23;20000;-65
2022/10/04 13:42:10;;;;;;;0.40;0.30;;;18.00;99.90;;;;;;6231703;22;20335;-66
2022/10/04 13:44:50;;;;;;;1.50;0.40;;;17.90;99.90;;;;;;6236115;23;20023;-65
2022/10/04 13:47:35;;;;;;;0.70;0.20;;;18.00;99.90;;;;;;6233902;23;20011;-66
2022/10/04 13:50:19;;;;;;;1.52;0.47;;;17.90;99.90;;;;;;6234599;23;20034;-65
2022/10/04 13:59:05;;;;;;;0.60;0.30;;;17.70;99.90;;;;;;6232571;23;20062;-65
2022/10/04 14:02:09;;;;;;;1.20;0.50;;;17.50;99.90;;;;;;6232530;23;20008;-65
2022/10/04 14:05:22;;;;;;;1.60;0.90;;;17.40;99.90;;;;;;6229671;23;20027;-65
2022/10/04 14:08:35;;;;;;;2.90;0.80;;;17.40;99.90;;;;;;6138775;23;20291;-67
2022/10/04 14:11:05;;;;;;;0.60;0.40;;;17.40;99.90;;;;;;6232286;22;20001;-65
2022/10/04 14:13:52;;;;;;;2.83;0.50;;;17.30;99.90;;;;;;6230514;23;20028;-65
2022/10/04 14:16:33;;;;;;;0.95;0.43;;;17.10;99.90;;;;;;6230381;23;20008;-65